sensor_id;sensor_type;location;lat;lon;timestamp;P1;durP1;ratioP1;P2;durP2;ratioP2
12308;SDS011;6217;48.150;17.142;2023-04-24T00:03:40;7.32;;;4.18;;
12308;SDS011;6217;48.150;17.142;2023-04-24T00:07:46;4.55;;;3.90;;
12308;SDS011;6217;48.150;17.142;2023-04-24T00:11:52;6.15;;;4.43;;
12308;SDS011;6217;48.150;17.142;2023-04-24T00:15:59;4.07;;;3.40;;
12308;SDS011;6217;48.150;17.142;2023-04-24T00:20:05;4.90;;;3.95;;
12308;SDS011;6217;48.150;17.142;2023-04-24T00:24:12;5.18;;;4.10;;
12308;SDS011;6217;48.150;17.142;2023-04-24T00:28:17;4.95;;;4.07;;
12308;SDS011;6217;48.150;17.142;2023-04-24T00:32:23;4.85;;;3.83;;
12308;SDS011;6217;48.150;17.142;2023-04-24T00:36:30;6.95;;;4.22;;
12308;SDS011;6217;48.150;17.142;2023-04-24T00:40:36;8.43;;;5.72;;
12308;SDS011;6217;48.150;17.142;2023-04-24T00:44:42;6.72;;;4.05;;
12308;SDS011;6217;48.150;17.142;2023-04-24T00:48:48;5.10;;;4.55;;
12308;SDS011;6217;48.150;17.142;2023-04-24T00:52:56;4.55;;;4.15;;
12308;SDS011;6217;48.150;17.142;2023-04-24T00:57:02;5.68;;;4.38;;
12308;SDS011;6217;48.150;17.142;2023-04-24T01:01:09;5.57;;;4.75;;
12308;SDS011;6217;48.150;17.142;2023-04-24T01:05:16;4.78;;;4.32;;
12308;SDS011;6217;48.150;17.142;2023-04-24T01:09:23;6.45;;;4.65;;
12308;SDS011;6217;48.150;17.142;2023-04-24T01:13:29;7.20;;;5.38;;
12308;SDS011;6217;48.150;17.142;2023-04-24T01:17:37;7.53;;;3.72;;
12308;SDS011;6217;48.150;17.142;2023-04-24T01:21:44;5.95;;;3.97;;
12308;SDS011;6217;48.150;17.142;2023-04-24T01:25:57;9.50;;;4.22;;
12308;SDS011;6217;48.150;17.142;2023-04-24T01:30:05;8.50;;;3.45;;
12308;SDS011;6217;48.150;17.142;2023-04-24T01:34:12;5.63;;;3.95;;
12308;SDS011;6217;48.150;17.142;2023-04-24T01:38:19;4.53;;;4.05;;
12308;SDS011;6217;48.150;17.142;2023-04-24T01:42:25;8.10;;;5.40;;
12308;SDS011;6217;48.150;17.142;2023-04-24T01:46:31;6.57;;;4.15;;
12308;SDS011;6217;48.150;17.142;2023-04-24T01:50:39;5.45;;;4.97;;
12308;SDS011;6217;48.150;17.142;2023-04-24T01:54:45;5.85;;;3.63;;
12308;SDS011;6217;48.150;17.142;2023-04-24T01:58:51;6.68;;;4.63;;
12308;SDS011;6217;48.150;17.142;2023-04-24T02:02:58;5.07;;;3.83;;
12308;SDS011;6217;48.150;17.142;2023-04-24T02:07:06;6.47;;;5.38;;
12308;SDS011;6217;48.150;17.142;2023-04-24T02:11:13;7.20;;;4.15;;
12308;SDS011;6217;48.150;17.142;2023-04-24T02:15:19;5.60;;;4.90;;
12308;SDS011;6217;48.150;17.142;2023-04-24T02:19:24;4.72;;;4.28;;
12308;SDS011;6217;48.150;17.142;2023-04-24T02:23:30;6.07;;;4.22;;
12308;SDS011;6217;48.150;17.142;2023-04-24T02:27:36;6.00;;;4.55;;
12308;SDS011;6217;48.150;17.142;2023-04-24T02:31:44;6.90;;;4.93;;
12308;SDS011;6217;48.150;17.142;2023-04-24T02:35:53;6.53;;;4.35;;
12308;SDS011;6217;48.150;17.142;2023-04-24T02:39:59;6.60;;;4.63;;
12308;SDS011;6217;48.150;17.142;2023-04-24T02:44:05;6.47;;;4.88;;
12308;SDS011;6217;48.150;17.142;2023-04-24T02:48:11;9.73;;;4.25;;
12308;SDS011;6217;48.150;17.142;2023-04-24T02:52:17;5.95;;;5.28;;
12308;SDS011;6217;48.150;17.142;2023-04-24T02:56:23;6.80;;;6.13;;
12308;SDS011;6217;48.150;17.142;2023-04-24T03:00:29;5.38;;;4.88;;
12308;SDS011;6217;48.150;17.142;2023-04-24T03:04:35;6.43;;;5.57;;
12308;SDS011;6217;48.150;17.142;2023-04-24T03:08:42;14.20;;;5.80;;
12308;SDS011;6217;48.150;17.142;2023-04-24T03:12:50;6.20;;;5.07;;
12308;SDS011;6217;48.150;17.142;2023-04-24T03:16:57;5.88;;;4.82;;
12308;SDS011;6217;48.150;17.142;2023-04-24T03:21:03;12.55;;;4.90;;
12308;SDS011;6217;48.150;17.142;2023-04-24T03:25:10;6.50;;;5.28;;
12308;SDS011;6217;48.150;17.142;2023-04-24T03:29:17;5.50;;;4.90;;
12308;SDS011;6217;48.150;17.142;2023-04-24T03:33:23;11.57;;;6.00;;
12308;SDS011;6217;48.150;17.142;2023-04-24T03:37:37;8.27;;;6.40;;
12308;SDS011;6217;48.150;17.142;2023-04-24T03:42:02;7.60;;;4.88;;
12308;SDS011;6217;48.150;17.142;2023-04-24T03:46:25;6.68;;;5.15;;
12308;SDS011;6217;48.150;17.142;2023-04-24T03:50:37;6.90;;;5.78;;
12308;SDS011;6217;48.150;17.142;2023-04-24T03:54:47;7.88;;;6.40;;
12308;SDS011;6217;48.150;17.142;2023-04-24T03:58:54;8.80;;;7.18;;
12308;SDS011;6217;48.150;17.142;2023-04-24T04:03:00;9.18;;;5.25;;
12308;SDS011;6217;48.150;17.142;2023-04-24T04:07:06;6.32;;;5.72;;
12308;SDS011;6217;48.150;17.142;2023-04-24T04:11:13;7.68;;;5.68;;
12308;SDS011;6217;48.150;17.142;2023-04-24T04:15:19;8.52;;;5.97;;
12308;SDS011;6217;48.150;17.142;2023-04-24T04:19:25;7.45;;;4.90;;
12308;SDS011;6217;48.150;17.142;2023-04-24T04:23:32;6.75;;;5.35;;
12308;SDS011;6217;48.150;17.142;2023-04-24T04:27:51;5.97;;;5.35;;
12308;SDS011;6217;48.150;17.142;2023-04-24T04:31:58;7.35;;;5.82;;
12308;SDS011;6217;48.150;17.142;2023-04-24T04:36:05;7.57;;;6.82;;
12308;SDS011;6217;48.150;17.142;2023-04-24T04:40:14;9.07;;;6.28;;
12308;SDS011;6217;48.150;17.142;2023-04-24T04:44:36;12.63;;;6.00;;
12308;SDS011;6217;48.150;17.142;2023-04-24T04:48:45;16.25;;;6.03;;
12308;SDS011;6217;48.150;17.142;2023-04-24T04:52:51;10.07;;;6.82;;
12308;SDS011;6217;48.150;17.142;2023-04-24T04:57:04;9.07;;;6.38;;
12308;SDS011;6217;48.150;17.142;2023-04-24T05:01:12;10.15;;;8.52;;
12308;SDS011;6217;48.150;17.142;2023-04-24T05:05:21;8.60;;;6.53;;
12308;SDS011;6217;48.150;17.142;2023-04-24T05:09:28;8.23;;;5.85;;
12308;SDS011;6217;48.150;17.142;2023-04-24T05:13:40;11.60;;;6.70;;
12308;SDS011;6217;48.150;17.142;2023-04-24T05:18:12;8.00;;;5.57;;
12308;SDS011;6217;48.150;17.142;2023-04-24T05:22:18;8.02;;;5.57;;
12308;SDS011;6217;48.150;17.142;2023-04-24T05:30:37;6.70;;;6.07;;
12308;SDS011;6217;48.150;17.142;2023-04-24T05:34:43;8.20;;;5.97;;
12308;SDS011;6217;48.150;17.142;2023-04-24T05:38:49;6.75;;;5.93;;
12308;SDS011;6217;48.150;17.142;2023-04-24T05:42:55;7.75;;;6.03;;
12308;SDS011;6217;48.150;17.142;2023-04-24T05:47:03;10.02;;;5.60;;
12308;SDS011;6217;48.150;17.142;2023-04-24T05:51:09;11.50;;;5.75;;
12308;SDS011;6217;48.150;17.142;2023-04-24T05:55:15;6.93;;;6.20;;
12308;SDS011;6217;48.150;17.142;2023-04-24T05:59:23;8.68;;;6.05;;
12308;SDS011;6217;48.150;17.142;2023-04-24T06:03:31;9.93;;;6.72;;
12308;SDS011;6217;48.150;17.142;2023-04-24T06:07:37;7.05;;;6.13;;
12308;SDS011;6217;48.150;17.142;2023-04-24T06:11:45;8.30;;;6.18;;
12308;SDS011;6217;48.150;17.142;2023-04-24T06:15:53;10.65;;;7.68;;
12308;SDS011;6217;48.150;17.142;2023-04-24T06:20:08;9.27;;;6.75;;
12308;SDS011;6217;48.150;17.142;2023-04-24T06:24:16;9.68;;;7.18;;
12308;SDS011;6217;48.150;17.142;2023-04-24T06:28:22;8.98;;;7.00;;
12308;SDS011;6217;48.150;17.142;2023-04-24T06:32:28;10.90;;;7.35;;
12308;SDS011;6217;48.150;17.142;2023-04-24T06:36:34;4.97;;;4.53;;
12308;SDS011;6217;48.150;17.142;2023-04-24T06:40:40;10.25;;;4.85;;
12308;SDS011;6217;48.150;17.142;2023-04-24T06:44:46;3.90;;;3.53;;
12308;SDS011;6217;48.150;17.142;2023-04-24T06:48:52;6.97;;;3.42;;
12308;SDS011;6217;48.150;17.142;2023-04-24T06:53:01;3.58;;;2.38;;
12308;SDS011;6217;48.150;17.142;2023-04-24T06:57:08;4.35;;;2.88;;
12308;SDS011;6217;48.150;17.142;2023-04-24T07:01:14;2.95;;;1.73;;
12308;SDS011;6217;48.150;17.142;2023-04-24T07:05:20;2.42;;;1.67;;
12308;SDS011;6217;48.150;17.142;2023-04-24T07:09:26;2.63;;;1.70;;
12308;SDS011;6217;48.150;17.142;2023-04-24T07:13:32;3.00;;;1.40;;
12308;SDS011;6217;48.150;17.142;2023-04-24T07:17:40;1.67;;;1.42;;
12308;SDS011;6217;48.150;17.142;2023-04-24T07:21:49;1.48;;;1.38;;
12308;SDS011;6217;48.150;17.142;2023-04-24T07:25:55;3.47;;;1.23;;
12308;SDS011;6217;48.150;17.142;2023-04-24T07:30:01;5.53;;;1.50;;
12308;SDS011;6217;48.150;17.142;2023-04-24T07:38:18;1.75;;;1.63;;
12308;SDS011;6217;48.150;17.142;2023-04-24T07:42:27;1.45;;;1.35;;
12308;SDS011;6217;48.150;17.142;2023-04-24T07:46:35;3.10;;;1.50;;
12308;SDS011;6217;48.150;17.142;2023-04-24T07:50:41;2.75;;;1.63;;
12308;SDS011;6217;48.150;17.142;2023-04-24T07:54:47;3.35;;;2.17;;
12308;SDS011;6217;48.150;17.142;2023-04-24T07:58:54;1.80;;;1.40;;
12308;SDS011;6217;48.150;17.142;2023-04-24T08:03:00;7.25;;;1.55;;
12308;SDS011;6217;48.150;17.142;2023-04-24T08:07:07;2.63;;;1.80;;
12308;SDS011;6217;48.150;17.142;2023-04-24T08:11:13;4.72;;;1.70;;
12308;SDS011;6217;48.150;17.142;2023-04-24T08:15:19;3.08;;;1.70;;
12308;SDS011;6217;48.150;17.142;2023-04-24T08:19:25;1.50;;;1.38;;
12308;SDS011;6217;48.150;17.142;2023-04-24T08:23:31;2.13;;;1.50;;
12308;SDS011;6217;48.150;17.142;2023-04-24T08:27:36;1.83;;;1.50;;
12308;SDS011;6217;48.150;17.142;2023-04-24T08:31:43;1.80;;;1.50;;
12308;SDS011;6217;48.150;17.142;2023-04-24T08:35:49;1.45;;;1.23;;
12308;SDS011;6217;48.150;17.142;2023-04-24T08:39:55;2.45;;;1.40;;
12308;SDS011;6217;48.150;17.142;2023-04-24T08:44:02;10.63;;;1.10;;
12308;SDS011;6217;48.150;17.142;2023-04-24T08:48:08;6.05;;;1.52;;
12308;SDS011;6217;48.150;17.142;2023-04-24T08:52:15;1.30;;;1.20;;
12308;SDS011;6217;48.150;17.142;2023-04-24T08:56:21;2.63;;;1.35;;
12308;SDS011;6217;48.150;17.142;2023-04-24T09:00:28;3.97;;;1.50;;
12308;SDS011;6217;48.150;17.142;2023-04-24T09:04:35;2.78;;;1.50;;
12308;SDS011;6217;48.150;17.142;2023-04-24T09:08:42;12.50;;;1.50;;
12308;SDS011;6217;48.150;17.142;2023-04-24T09:12:51;2.78;;;1.60;;
12308;SDS011;6217;48.150;17.142;2023-04-24T09:16:57;1.80;;;1.35;;
12308;SDS011;6217;48.150;17.142;2023-04-24T09:21:06;9.75;;;1.55;;
12308;SDS011;6217;48.150;17.142;2023-04-24T09:25:13;1.60;;;1.25;;
12308;SDS011;6217;48.150;17.142;2023-04-24T09:29:19;1.30;;;1.20;;
12308;SDS011;6217;48.150;17.142;2023-04-24T09:33:25;2.80;;;1.17;;
12308;SDS011;6217;48.150;17.142;2023-04-24T09:37:34;3.10;;;1.75;;
12308;SDS011;6217;48.150;17.142;2023-04-24T09:41:52;5.00;;;1.20;;
12308;SDS011;6217;48.150;17.142;2023-04-24T09:46:06;2.55;;;1.25;;
12308;SDS011;6217;48.150;17.142;2023-04-24T09:50:15;1.67;;;1.50;;
12308;SDS011;6217;48.150;17.142;2023-04-24T09:54:22;3.92;;;1.00;;
12308;SDS011;6217;48.150;17.142;2023-04-24T09:58:29;0.82;;;0.82;;
12308;SDS011;6217;48.150;17.142;2023-04-24T10:02:35;1.85;;;0.93;;
12308;SDS011;6217;48.150;17.142;2023-04-24T10:06:42;1.05;;;1.05;;
12308;SDS011;6217;48.150;17.142;2023-04-24T10:10:48;1.95;;;0.85;;
12308;SDS011;6217;48.150;17.142;2023-04-24T10:14:54;0.70;;;0.57;;
12308;SDS011;6217;48.150;17.142;2023-04-24T10:19:01;0.80;;;0.80;;
12308;SDS011;6217;48.150;17.142;2023-04-24T10:23:09;2.88;;;0.60;;
12308;SDS011;6217;48.150;17.142;2023-04-24T10:27:16;0.57;;;0.55;;
12308;SDS011;6217;48.150;17.142;2023-04-24T10:31:22;1.13;;;0.70;;
12308;SDS011;6217;48.150;17.142;2023-04-24T10:35:30;0.77;;;0.70;;
12308;SDS011;6217;48.150;17.142;2023-04-24T10:39:43;1.13;;;0.43;;
12308;SDS011;6217;48.150;17.142;2023-04-24T10:44:12;0.98;;;0.60;;
12308;SDS011;6217;48.150;17.142;2023-04-24T10:48:20;1.02;;;0.60;;
12308;SDS011;6217;48.150;17.142;2023-04-24T10:52:45;0.60;;;0.50;;
12308;SDS011;6217;48.150;17.142;2023-04-24T10:56:55;0.85;;;0.50;;
12308;SDS011;6217;48.150;17.142;2023-04-24T11:01:29;0.90;;;0.50;;
12308;SDS011;6217;48.150;17.142;2023-04-24T11:05:57;2.25;;;0.40;;
12308;SDS011;6217;48.150;17.142;2023-04-24T11:10:06;1.65;;;0.57;;
12308;SDS011;6217;48.150;17.142;2023-04-24T11:14:15;0.80;;;0.40;;
12308;SDS011;6217;48.150;17.142;2023-04-24T11:18:22;0.90;;;0.40;;
12308;SDS011;6217;48.150;17.142;2023-04-24T11:22:28;1.45;;;0.73;;
12308;SDS011;6217;48.150;17.142;2023-04-24T11:26:39;0.73;;;0.68;;
12308;SDS011;6217;48.150;17.142;2023-04-24T11:30:45;0.70;;;0.60;;
12308;SDS011;6217;48.150;17.142;2023-04-24T11:34:52;0.68;;;0.45;;
12308;SDS011;6217;48.150;17.142;2023-04-24T11:39:03;0.85;;;0.50;;
12308;SDS011;6217;48.150;17.142;2023-04-24T11:43:10;0.90;;;0.70;;
12308;SDS011;6217;48.150;17.142;2023-04-24T11:47:16;3.63;;;0.60;;
12308;SDS011;6217;48.150;17.142;2023-04-24T11:51:23;1.30;;;0.63;;
12308;SDS011;6217;48.150;17.142;2023-04-24T11:55:32;1.52;;;0.60;;
12308;SDS011;6217;48.150;17.142;2023-04-24T11:59:38;1.55;;;0.90;;
12308;SDS011;6217;48.150;17.142;2023-04-24T12:03:48;0.93;;;0.70;;
12308;SDS011;6217;48.150;17.142;2023-04-24T12:07:56;1.13;;;0.70;;
12308;SDS011;6217;48.150;17.142;2023-04-24T12:12:02;2.30;;;1.45;;
12308;SDS011;6217;48.150;17.142;2023-04-24T12:16:08;0.60;;;0.60;;
12308;SDS011;6217;48.150;17.142;2023-04-24T12:20:14;1.25;;;0.60;;
12308;SDS011;6217;48.150;17.142;2023-04-24T12:24:20;2.75;;;0.90;;
12308;SDS011;6217;48.150;17.142;2023-04-24T12:28:34;0.50;;;0.50;;
12308;SDS011;6217;48.150;17.142;2023-04-24T12:32:42;1.50;;;0.60;;
12308;SDS011;6217;48.150;17.142;2023-04-24T12:36:53;3.35;;;0.50;;
12308;SDS011;6217;48.150;17.142;2023-04-24T12:41:09;1.08;;;1.05;;
12308;SDS011;6217;48.150;17.142;2023-04-24T12:45:17;0.68;;;0.40;;
12308;SDS011;6217;48.150;17.142;2023-04-24T12:49:24;0.60;;;0.60;;
12308;SDS011;6217;48.150;17.142;2023-04-24T12:53:30;0.63;;;0.60;;
12308;SDS011;6217;48.150;17.142;2023-04-24T12:57:36;0.65;;;0.63;;
12308;SDS011;6217;48.150;17.142;2023-04-24T13:01:44;0.82;;;0.57;;
12308;SDS011;6217;48.150;17.142;2023-04-24T13:05:50;0.45;;;0.45;;
12308;SDS011;6217;48.150;17.142;2023-04-24T13:09:55;2.05;;;0.60;;
12308;SDS011;6217;48.150;17.142;2023-04-24T13:14:02;0.60;;;0.60;;
12308;SDS011;6217;48.150;17.142;2023-04-24T13:18:08;1.02;;;0.55;;
12308;SDS011;6217;48.150;17.142;2023-04-24T13:22:14;0.95;;;0.70;;
12308;SDS011;6217;48.150;17.142;2023-04-24T13:26:20;0.40;;;0.40;;
12308;SDS011;6217;48.150;17.142;2023-04-24T13:30:26;1.85;;;0.55;;
12308;SDS011;6217;48.150;17.142;2023-04-24T13:34:32;0.80;;;0.68;;
12308;SDS011;6217;48.150;17.142;2023-04-24T13:38:39;0.80;;;0.80;;
12308;SDS011;6217;48.150;17.142;2023-04-24T13:42:45;0.68;;;0.68;;
12308;SDS011;6217;48.150;17.142;2023-04-24T13:46:52;1.92;;;0.70;;
12308;SDS011;6217;48.150;17.142;2023-04-24T13:51:01;0.55;;;0.55;;
12308;SDS011;6217;48.150;17.142;2023-04-24T13:55:07;0.50;;;0.50;;
12308;SDS011;6217;48.150;17.142;2023-04-24T13:59:13;0.55;;;0.40;;
12308;SDS011;6217;48.150;17.142;2023-04-24T14:03:19;0.73;;;0.60;;
12308;SDS011;6217;48.150;17.142;2023-04-24T14:07:25;0.68;;;0.50;;
12308;SDS011;6217;48.150;17.142;2023-04-24T14:11:33;0.65;;;0.50;;
12308;SDS011;6217;48.150;17.142;2023-04-24T14:15:39;0.73;;;0.50;;
12308;SDS011;6217;48.150;17.142;2023-04-24T14:19:45;0.73;;;0.40;;
12308;SDS011;6217;48.150;17.142;2023-04-24T14:23:51;0.50;;;0.50;;
12308;SDS011;6217;48.150;17.142;2023-04-24T14:27:57;0.88;;;0.32;;
12308;SDS011;6217;48.150;17.142;2023-04-24T14:32:03;0.20;;;0.20;;
12308;SDS011;6217;48.150;17.142;2023-04-24T14:36:08;2.63;;;0.30;;
12308;SDS011;6217;48.150;17.142;2023-04-24T14:40:14;0.20;;;0.20;;
12308;SDS011;6217;48.150;17.142;2023-04-24T14:44:20;0.60;;;0.60;;
12308;SDS011;6217;48.150;17.142;2023-04-24T14:48:26;1.08;;;0.38;;
12308;SDS011;6217;48.150;17.142;2023-04-24T14:52:32;0.43;;;0.22;;
12308;SDS011;6217;48.150;17.142;2023-04-24T14:56:38;0.20;;;0.20;;
12308;SDS011;6217;48.150;17.142;2023-04-24T15:00:46;0.30;;;0.30;;
12308;SDS011;6217;48.150;17.142;2023-04-24T15:04:52;0.95;;;0.43;;
12308;SDS011;6217;48.150;17.142;2023-04-24T15:08:57;0.50;;;0.20;;
12308;SDS011;6217;48.150;17.142;2023-04-24T15:13:04;0.35;;;0.30;;
12308;SDS011;6217;48.150;17.142;2023-04-24T15:17:10;0.50;;;0.30;;
12308;SDS011;6217;48.150;17.142;2023-04-24T15:21:15;1.10;;;0.43;;
12308;SDS011;6217;48.150;17.142;2023-04-24T15:25:21;0.40;;;0.30;;
12308;SDS011;6217;48.150;17.142;2023-04-24T15:29:28;0.35;;;0.25;;
12308;SDS011;6217;48.150;17.142;2023-04-24T15:33:34;0.35;;;0.30;;
12308;SDS011;6217;48.150;17.142;2023-04-24T15:37:40;2.05;;;0.30;;
12308;SDS011;6217;48.150;17.142;2023-04-24T15:41:45;0.30;;;0.20;;
12308;SDS011;6217;48.150;17.142;2023-04-24T15:45:51;1.58;;;0.40;;
12308;SDS011;6217;48.150;17.142;2023-04-24T15:49:57;0.38;;;0.20;;
12308;SDS011;6217;48.150;17.142;2023-04-24T15:54:03;0.52;;;0.32;;
12308;SDS011;6217;48.150;17.142;2023-04-24T15:58:09;3.03;;;0.38;;
12308;SDS011;6217;48.150;17.142;2023-04-24T16:02:15;0.55;;;0.20;;
12308;SDS011;6217;48.150;17.142;2023-04-24T16:06:23;0.50;;;0.40;;
12308;SDS011;6217;48.150;17.142;2023-04-24T16:10:29;0.55;;;0.55;;
12308;SDS011;6217;48.150;17.142;2023-04-24T16:14:38;3.58;;;0.57;;
12308;SDS011;6217;48.150;17.142;2023-04-24T16:18:45;0.32;;;0.30;;
12308;SDS011;6217;48.150;17.142;2023-04-24T16:22:51;2.78;;;0.40;;
12308;SDS011;6217;48.150;17.142;2023-04-24T16:26:57;0.38;;;0.38;;
12308;SDS011;6217;48.150;17.142;2023-04-24T16:31:03;1.92;;;0.43;;
12308;SDS011;6217;48.150;17.142;2023-04-24T16:35:09;1.63;;;0.50;;
12308;SDS011;6217;48.150;17.142;2023-04-24T16:39:15;2.80;;;0.55;;
12308;SDS011;6217;48.150;17.142;2023-04-24T16:43:21;0.45;;;0.45;;
12308;SDS011;6217;48.150;17.142;2023-04-24T16:47:27;0.57;;;0.40;;
12308;SDS011;6217;48.150;17.142;2023-04-24T16:51:33;1.27;;;0.50;;
12308;SDS011;6217;48.150;17.142;2023-04-24T16:55:39;2.90;;;0.50;;
12308;SDS011;6217;48.150;17.142;2023-04-24T16:59:45;0.95;;;0.63;;
12308;SDS011;6217;48.150;17.142;2023-04-24T17:03:51;1.67;;;0.60;;
12308;SDS011;6217;48.150;17.142;2023-04-24T17:07:57;1.13;;;0.68;;
12308;SDS011;6217;48.150;17.142;2023-04-24T17:12:03;1.13;;;0.60;;
12308;SDS011;6217;48.150;17.142;2023-04-24T17:16:09;1.58;;;0.80;;
12308;SDS011;6217;48.150;17.142;2023-04-24T17:20:15;2.30;;;0.70;;
12308;SDS011;6217;48.150;17.142;2023-04-24T17:24:21;2.70;;;0.30;;
12308;SDS011;6217;48.150;17.142;2023-04-24T17:28:28;0.63;;;0.40;;
12308;SDS011;6217;48.150;17.142;2023-04-24T17:32:36;0.20;;;0.20;;
12308;SDS011;6217;48.150;17.142;2023-04-24T17:36:42;0.38;;;0.30;;
12308;SDS011;6217;48.150;17.142;2023-04-24T17:40:48;1.80;;;0.38;;
12308;SDS011;6217;48.150;17.142;2023-04-24T17:44:58;0.22;;;0.22;;
12308;SDS011;6217;48.150;17.142;2023-04-24T17:49:03;0.28;;;0.28;;
12308;SDS011;6217;48.150;17.142;2023-04-24T17:53:10;1.60;;;0.60;;
12308;SDS011;6217;48.150;17.142;2023-04-24T17:57:16;8.70;;;0.35;;
12308;SDS011;6217;48.150;17.142;2023-04-24T18:01:22;0.57;;;0.30;;
12308;SDS011;6217;48.150;17.142;2023-04-24T18:05:28;1.42;;;0.40;;
12308;SDS011;6217;48.150;17.142;2023-04-24T18:09:36;0.50;;;0.30;;
12308;SDS011;6217;48.150;17.142;2023-04-24T18:13:42;3.80;;;0.50;;
12308;SDS011;6217;48.150;17.142;2023-04-24T18:21:56;2.60;;;0.60;;
12308;SDS011;6217;48.150;17.142;2023-04-24T18:26:03;4.13;;;0.70;;
12308;SDS011;6217;48.150;17.142;2023-04-24T18:30:09;0.93;;;0.55;;
12308;SDS011;6217;48.150;17.142;2023-04-24T18:34:16;1.08;;;0.50;;
12308;SDS011;6217;48.150;17.142;2023-04-24T18:38:25;3.15;;;0.60;;
12308;SDS011;6217;48.150;17.142;2023-04-24T18:42:31;3.38;;;1.00;;
12308;SDS011;6217;48.150;17.142;2023-04-24T18:46:37;1.17;;;0.55;;
12308;SDS011;6217;48.150;17.142;2023-04-24T18:50:45;0.75;;;0.65;;
12308;SDS011;6217;48.150;17.142;2023-04-24T18:54:51;1.00;;;0.82;;
12308;SDS011;6217;48.150;17.142;2023-04-24T18:58:57;2.25;;;0.80;;
12308;SDS011;6217;48.150;17.142;2023-04-24T19:03:03;1.33;;;0.80;;
12308;SDS011;6217;48.150;17.142;2023-04-24T19:07:40;2.30;;;0.90;;
12308;SDS011;6217;48.150;17.142;2023-04-24T19:11:46;2.30;;;0.75;;
12308;SDS011;6217;48.150;17.142;2023-04-24T19:15:53;1.25;;;0.88;;
12308;SDS011;6217;48.150;17.142;2023-04-24T19:20:01;2.72;;;1.05;;
12308;SDS011;6217;48.150;17.142;2023-04-24T19:24:08;1.85;;;0.90;;
12308;SDS011;6217;48.150;17.142;2023-04-24T19:28:17;1.50;;;1.40;;
12308;SDS011;6217;48.150;17.142;2023-04-24T19:32:24;1.48;;;0.90;;
12308;SDS011;6217;48.150;17.142;2023-04-24T19:36:30;1.65;;;1.08;;
12308;SDS011;6217;48.150;17.142;2023-04-24T19:40:36;4.30;;;1.10;;
12308;SDS011;6217;48.150;17.142;2023-04-24T19:44:42;1.40;;;1.30;;
12308;SDS011;6217;48.150;17.142;2023-04-24T19:48:48;2.13;;;0.90;;
12308;SDS011;6217;48.150;17.142;2023-04-24T19:52:54;1.10;;;1.00;;
12308;SDS011;6217;48.150;17.142;2023-04-24T19:57:00;3.45;;;1.02;;
12308;SDS011;6217;48.150;17.142;2023-04-24T20:01:07;3.30;;;1.25;;
12308;SDS011;6217;48.150;17.142;2023-04-24T20:05:13;1.88;;;1.23;;
12308;SDS011;6217;48.150;17.142;2023-04-24T20:09:19;2.85;;;1.20;;
12308;SDS011;6217;48.150;17.142;2023-04-24T20:13:24;1.52;;;1.00;;
12308;SDS011;6217;48.150;17.142;2023-04-24T20:17:38;2.95;;;1.38;;
12308;SDS011;6217;48.150;17.142;2023-04-24T20:21:44;1.70;;;1.50;;
12308;SDS011;6217;48.150;17.142;2023-04-24T20:25:50;1.48;;;1.33;;
12308;SDS011;6217;48.150;17.142;2023-04-24T20:30:02;1.50;;;1.35;;
12308;SDS011;6217;48.150;17.142;2023-04-24T20:34:08;1.88;;;1.30;;
12308;SDS011;6217;48.150;17.142;2023-04-24T20:38:14;1.50;;;1.17;;
12308;SDS011;6217;48.150;17.142;2023-04-24T20:42:22;1.83;;;1.40;;
12308;SDS011;6217;48.150;17.142;2023-04-24T20:46:29;1.35;;;1.25;;
12308;SDS011;6217;48.150;17.142;2023-04-24T20:50:35;1.42;;;1.27;;
12308;SDS011;6217;48.150;17.142;2023-04-24T20:54:42;3.00;;;1.10;;
12308;SDS011;6217;48.150;17.142;2023-04-24T20:58:48;2.90;;;1.05;;
12308;SDS011;6217;48.150;17.142;2023-04-24T21:02:55;1.25;;;1.10;;
12308;SDS011;6217;48.150;17.142;2023-04-24T21:07:01;2.17;;;1.20;;
12308;SDS011;6217;48.150;17.142;2023-04-24T21:11:07;1.20;;;1.10;;
12308;SDS011;6217;48.150;17.142;2023-04-24T21:15:12;1.33;;;1.17;;
12308;SDS011;6217;48.150;17.142;2023-04-24T21:19:18;1.55;;;0.90;;
12308;SDS011;6217;48.150;17.142;2023-04-24T21:23:24;1.05;;;0.90;;
12308;SDS011;6217;48.150;17.142;2023-04-24T21:27:31;1.20;;;1.10;;
12308;SDS011;6217;48.150;17.142;2023-04-24T21:31:36;1.45;;;0.98;;
12308;SDS011;6217;48.150;17.142;2023-04-24T21:35:42;0.75;;;0.75;;
12308;SDS011;6217;48.150;17.142;2023-04-24T21:39:49;1.65;;;1.20;;
12308;SDS011;6217;48.150;17.142;2023-04-24T21:43:59;1.08;;;0.80;;
12308;SDS011;6217;48.150;17.142;2023-04-24T21:48:09;1.00;;;0.90;;
12308;SDS011;6217;48.150;17.142;2023-04-24T21:52:23;1.40;;;1.13;;
12308;SDS011;6217;48.150;17.142;2023-04-24T21:56:29;0.95;;;0.85;;
12308;SDS011;6217;48.150;17.142;2023-04-24T22:05:09;1.65;;;1.25;;
12308;SDS011;6217;48.150;17.142;2023-04-24T22:09:35;1.90;;;1.00;;
12308;SDS011;6217;48.150;17.142;2023-04-24T22:13:44;1.40;;;1.30;;
12308;SDS011;6217;48.150;17.142;2023-04-24T22:17:55;1.65;;;1.10;;
12308;SDS011;6217;48.150;17.142;2023-04-24T22:22:03;1.35;;;1.02;;
12308;SDS011;6217;48.150;17.142;2023-04-24T22:26:09;1.10;;;0.95;;
12308;SDS011;6217;48.150;17.142;2023-04-24T22:30:15;3.72;;;0.90;;
12308;SDS011;6217;48.150;17.142;2023-04-24T22:34:24;1.00;;;0.90;;
12308;SDS011;6217;48.150;17.142;2023-04-24T22:38:31;2.65;;;1.27;;
12308;SDS011;6217;48.150;17.142;2023-04-24T22:42:37;2.35;;;1.00;;
12308;SDS011;6217;48.150;17.142;2023-04-24T22:46:43;1.02;;;0.90;;
12308;SDS011;6217;48.150;17.142;2023-04-24T22:50:50;0.80;;;0.80;;
12308;SDS011;6217;48.150;17.142;2023-04-24T22:54:56;1.33;;;1.23;;
12308;SDS011;6217;48.150;17.142;2023-04-24T22:59:04;1.05;;;0.95;;
12308;SDS011;6217;48.150;17.142;2023-04-24T23:03:10;1.02;;;0.93;;
12308;SDS011;6217;48.150;17.142;2023-04-24T23:07:16;1.83;;;1.00;;
12308;SDS011;6217;48.150;17.142;2023-04-24T23:11:22;4.45;;;1.08;;
12308;SDS011;6217;48.150;17.142;2023-04-24T23:15:30;1.55;;;0.82;;
12308;SDS011;6217;48.150;17.142;2023-04-24T23:19:36;1.75;;;1.13;;
12308;SDS011;6217;48.150;17.142;2023-04-24T23:23:42;1.42;;;1.10;;
12308;SDS011;6217;48.150;17.142;2023-04-24T23:27:48;1.92;;;1.00;;
12308;SDS011;6217;48.150;17.142;2023-04-24T23:31:56;2.92;;;2.20;;
12308;SDS011;6217;48.150;17.142;2023-04-24T23:36:02;2.55;;;0.80;;
12308;SDS011;6217;48.150;17.142;2023-04-24T23:40:11;1.23;;;1.05;;
12308;SDS011;6217;48.150;17.142;2023-04-24T23:44:18;0.98;;;0.82;;
12308;SDS011;6217;48.150;17.142;2023-04-24T23:48:25;3.00;;;1.30;;
12308;SDS011;6217;48.150;17.142;2023-04-24T23:52:31;4.13;;;1.25;;
12308;SDS011;6217;48.150;17.142;2023-04-24T23:56:39;2.28;;;1.00;;
